Arco, Idaho
Current Conditions -  °F | °C
As of 8:47 PM on Wednesday 26 Nov 2014 (Local Time) from KSUN Reporting Station
Clear Clear  
Wind Chill: 26°   Ceiling: Unl
Heat Index: 34°   Visibility: 10mi
Dew Point: 30°   Wind: 9mph
Humidity: 87%   Direction: 300°WNW
Pressure: 30.29"   Gusts: NA
Location:  43.64°N, 113.3°W
Report Text: KSUN 270347Z 30008KT 10SM SKC 01/M01 A3029
Loading
Personal Weather Stations






























Interactive Weather Map New forecast layout! Learn more

10-Day Weather Forecast

Advertisements
Track Severe Weather on mobile